sensor_id;sensor_type;location;lat;lon;timestamp;P1;durP1;ratioP1;P2;durP2;ratioP2
55082;SDS011;40978;52.850;6.506;2023-11-21T00:00:00;5.50;;;1.80;;
55082;SDS011;40978;52.850;6.506;2023-11-21T00:02:26;4.30;;;2.10;;
55082;SDS011;40978;52.850;6.506;2023-11-21T00:04:53;4.13;;;1.80;;
55082;SDS011;40978;52.850;6.506;2023-11-21T00:07:19;5.63;;;2.65;;
55082;SDS011;40978;52.850;6.506;2023-11-21T00:09:46;6.20;;;2.88;;
55082;SDS011;40978;52.850;6.506;2023-11-21T00:12:12;4.57;;;2.05;;
55082;SDS011;40978;52.850;6.506;2023-11-21T00:14:39;3.80;;;1.85;;
55082;SDS011;40978;52.850;6.506;2023-11-21T00:17:05;2.70;;;1.60;;
55082;SDS011;40978;52.850;6.506;2023-11-21T00:19:31;5.93;;;2.83;;
55082;SDS011;40978;52.850;6.506;2023-11-21T00:21:58;7.10;;;2.60;;
55082;SDS011;40978;52.850;6.506;2023-11-21T00:24:24;6.18;;;2.72;;
55082;SDS011;40978;52.850;6.506;2023-11-21T00:26:51;4.57;;;2.55;;
55082;SDS011;40978;52.850;6.506;2023-11-21T00:29:16;4.57;;;2.78;;
55082;SDS011;40978;52.850;6.506;2023-11-21T00:31:43;6.40;;;3.78;;
55082;SDS011;40978;52.850;6.506;2023-11-21T00:34:11;11.45;;;2.80;;
55082;SDS011;40978;52.850;6.506;2023-11-21T00:36:37;8.85;;;2.75;;
55082;SDS011;40978;52.850;6.506;2023-11-21T00:39:03;6.80;;;2.90;;
55082;SDS011;40978;52.850;6.506;2023-11-21T00:41:31;7.55;;;3.10;;
55082;SDS011;40978;52.850;6.506;2023-11-21T00:43:57;2.78;;;1.55;;
55082;SDS011;40978;52.850;6.506;2023-11-21T00:46:24;3.83;;;1.98;;
55082;SDS011;40978;52.850;6.506;2023-11-21T00:48:52;6.78;;;2.90;;
55082;SDS011;40978;52.850;6.506;2023-11-21T00:51:19;5.70;;;2.13;;
55082;SDS011;40978;52.850;6.506;2023-11-21T00:53:45;5.25;;;2.05;;
55082;SDS011;40978;52.850;6.506;2023-11-21T00:56:11;3.58;;;2.35;;
55082;SDS011;40978;52.850;6.506;2023-11-21T00:58:38;6.90;;;2.42;;
55082;SDS011;40978;52.850;6.506;2023-11-21T01:01:07;7.28;;;2.45;;
55082;SDS011;40978;52.850;6.506;2023-11-21T01:03:33;7.25;;;2.15;;
55082;SDS011;40978;52.850;6.506;2023-11-21T01:05:59;8.25;;;3.00;;
55082;SDS011;40978;52.850;6.506;2023-11-21T01:08:24;8.00;;;3.25;;
55082;SDS011;40978;52.850;6.506;2023-11-21T01:10:50;3.40;;;2.00;;
55082;SDS011;40978;52.850;6.506;2023-11-21T01:13:16;5.60;;;2.40;;
55082;SDS011;40978;52.850;6.506;2023-11-21T01:15:42;4.75;;;2.17;;
55082;SDS011;40978;52.850;6.506;2023-11-21T01:18:07;6.03;;;1.67;;
55082;SDS011;40978;52.850;6.506;2023-11-21T01:20:33;5.07;;;2.15;;
55082;SDS011;40978;52.850;6.506;2023-11-21T01:22:59;9.23;;;2.10;;
55082;SDS011;40978;52.850;6.506;2023-11-21T01:25:25;5.93;;;2.30;;
55082;SDS011;40978;52.850;6.506;2023-11-21T01:27:51;6.90;;;3.15;;
55082;SDS011;40978;52.850;6.506;2023-11-21T01:30:17;10.43;;;3.20;;
55082;SDS011;40978;52.850;6.506;2023-11-21T01:32:43;9.05;;;3.22;;
55082;SDS011;40978;52.850;6.506;2023-11-21T01:35:09;4.43;;;1.98;;
55082;SDS011;40978;52.850;6.506;2023-11-21T01:37:35;5.32;;;2.53;;
55082;SDS011;40978;52.850;6.506;2023-11-21T01:40:02;9.60;;;2.85;;
55082;SDS011;40978;52.850;6.506;2023-11-21T01:42:33;6.53;;;2.47;;
55082;SDS011;40978;52.850;6.506;2023-11-21T01:45:00;3.53;;;1.95;;
55082;SDS011;40978;52.850;6.506;2023-11-21T01:47:30;4.82;;;2.40;;
55082;SDS011;40978;52.850;6.506;2023-11-21T01:49:57;6.82;;;3.33;;
55082;SDS011;40978;52.850;6.506;2023-11-21T01:52:23;8.07;;;2.72;;
55082;SDS011;40978;52.850;6.506;2023-11-21T01:54:50;5.45;;;2.88;;
55082;SDS011;40978;52.850;6.506;2023-11-21T01:57:15;7.68;;;3.42;;
55082;SDS011;40978;52.850;6.506;2023-11-21T01:59:41;5.07;;;2.72;;
55082;SDS011;40978;52.850;6.506;2023-11-21T02:02:09;5.65;;;2.20;;
55082;SDS011;40978;52.850;6.506;2023-11-21T02:04:35;6.38;;;3.05;;
55082;SDS011;40978;52.850;6.506;2023-11-21T02:07:02;6.80;;;3.13;;
55082;SDS011;40978;52.850;6.506;2023-11-21T02:09:31;3.90;;;2.22;;
55082;SDS011;40978;52.850;6.506;2023-11-21T02:11:59;6.38;;;2.63;;
55082;SDS011;40978;52.850;6.506;2023-11-21T02:14:25;7.30;;;2.20;;
55082;SDS011;40978;52.850;6.506;2023-11-21T02:16:53;6.40;;;2.70;;
55082;SDS011;40978;52.850;6.506;2023-11-21T02:19:20;5.72;;;2.20;;
55082;SDS011;40978;52.850;6.506;2023-11-21T02:21:49;6.82;;;2.65;;
55082;SDS011;40978;52.850;6.506;2023-11-21T02:24:18;5.05;;;2.40;;
55082;SDS011;40978;52.850;6.506;2023-11-21T02:26:50;4.45;;;2.15;;
55082;SDS011;40978;52.850;6.506;2023-11-21T02:29:19;8.57;;;2.58;;
55082;SDS011;40978;52.850;6.506;2023-11-21T02:31:53;7.03;;;2.97;;
55082;SDS011;40978;52.850;6.506;2023-11-21T02:34:20;3.50;;;2.25;;
55082;SDS011;40978;52.850;6.506;2023-11-21T02:36:46;4.38;;;1.90;;
55082;SDS011;40978;52.850;6.506;2023-11-21T02:39:14;6.90;;;1.90;;
55082;SDS011;40978;52.850;6.506;2023-11-21T02:41:41;7.15;;;2.78;;
55082;SDS011;40978;52.850;6.506;2023-11-21T02:44:07;7.10;;;2.40;;
55082;SDS011;40978;52.850;6.506;2023-11-21T02:46:34;11.20;;;3.00;;
55082;SDS011;40978;52.850;6.506;2023-11-21T02:49:00;5.13;;;2.55;;
55082;SDS011;40978;52.850;6.506;2023-11-21T02:51:27;5.93;;;2.50;;
55082;SDS011;40978;52.850;6.506;2023-11-21T02:53:53;4.95;;;2.78;;
55082;SDS011;40978;52.850;6.506;2023-11-21T02:56:19;4.45;;;2.47;;
55082;SDS011;40978;52.850;6.506;2023-11-21T02:58:45;6.68;;;2.45;;
55082;SDS011;40978;52.850;6.506;2023-11-21T03:01:11;10.02;;;3.03;;
55082;SDS011;40978;52.850;6.506;2023-11-21T03:03:38;6.38;;;2.42;;
55082;SDS011;40978;52.850;6.506;2023-11-21T03:06:05;7.40;;;2.60;;
55082;SDS011;40978;52.850;6.506;2023-11-21T03:08:31;5.57;;;2.33;;
55082;SDS011;40978;52.850;6.506;2023-11-21T03:10:57;6.28;;;2.55;;
55082;SDS011;40978;52.850;6.506;2023-11-21T03:13:23;7.15;;;2.30;;
55082;SDS011;40978;52.850;6.506;2023-11-21T03:15:49;7.47;;;2.72;;
55082;SDS011;40978;52.850;6.506;2023-11-21T03:18:15;6.40;;;2.13;;
55082;SDS011;40978;52.850;6.506;2023-11-21T03:20:40;10.40;;;2.90;;
55082;SDS011;40978;52.850;6.506;2023-11-21T03:23:11;5.40;;;1.98;;
55082;SDS011;40978;52.850;6.506;2023-11-21T03:25:37;4.78;;;2.50;;
55082;SDS011;40978;52.850;6.506;2023-11-21T03:28:03;2.92;;;1.90;;
55082;SDS011;40978;52.850;6.506;2023-11-21T03:30:29;7.45;;;2.70;;
55082;SDS011;40978;52.850;6.506;2023-11-21T03:32:55;5.45;;;3.00;;
55082;SDS011;40978;52.850;6.506;2023-11-21T03:35:21;10.80;;;2.67;;
55082;SDS011;40978;52.850;6.506;2023-11-21T03:37:47;7.25;;;2.55;;
55082;SDS011;40978;52.850;6.506;2023-11-21T03:40:12;7.00;;;2.63;;
55082;SDS011;40978;52.850;6.506;2023-11-21T03:42:39;4.78;;;2.15;;
55082;SDS011;40978;52.850;6.506;2023-11-21T03:45:05;6.85;;;3.70;;
55082;SDS011;40978;52.850;6.506;2023-11-21T03:47:31;7.40;;;2.10;;
55082;SDS011;40978;52.850;6.506;2023-11-21T03:49:57;5.10;;;3.15;;
55082;SDS011;40978;52.850;6.506;2023-11-21T03:52:24;6.25;;;2.67;;
55082;SDS011;40978;52.850;6.506;2023-11-21T03:54:49;4.80;;;2.28;;
55082;SDS011;40978;52.850;6.506;2023-11-21T03:57:15;7.68;;;2.40;;
55082;SDS011;40978;52.850;6.506;2023-11-21T03:59:41;8.20;;;2.80;;
55082;SDS011;40978;52.850;6.506;2023-11-21T04:02:10;5.80;;;3.15;;
55082;SDS011;40978;52.850;6.506;2023-11-21T04:04:35;5.22;;;3.28;;
55082;SDS011;40978;52.850;6.506;2023-11-21T04:07:01;6.03;;;3.03;;
55082;SDS011;40978;52.850;6.506;2023-11-21T04:09:28;7.30;;;2.85;;
55082;SDS011;40978;52.850;6.506;2023-11-21T04:11:53;4.95;;;2.22;;
55082;SDS011;40978;52.850;6.506;2023-11-21T04:14:20;6.40;;;2.78;;
55082;SDS011;40978;52.850;6.506;2023-11-21T04:16:47;5.47;;;3.25;;
55082;SDS011;40978;52.850;6.506;2023-11-21T04:19:13;5.97;;;2.55;;
55082;SDS011;40978;52.850;6.506;2023-11-21T04:21:40;6.97;;;2.58;;
55082;SDS011;40978;52.850;6.506;2023-11-21T04:24:06;7.28;;;3.35;;
55082;SDS011;40978;52.850;6.506;2023-11-21T04:26:32;8.45;;;2.72;;
55082;SDS011;40978;52.850;6.506;2023-11-21T04:28:58;3.25;;;1.98;;
55082;SDS011;40978;52.850;6.506;2023-11-21T04:31:24;7.88;;;3.90;;
55082;SDS011;40978;52.850;6.506;2023-11-21T04:33:49;7.13;;;3.17;;
55082;SDS011;40978;52.850;6.506;2023-11-21T04:36:15;10.98;;;3.65;;
55082;SDS011;40978;52.850;6.506;2023-11-21T04:38:41;2.72;;;1.63;;
55082;SDS011;40978;52.850;6.506;2023-11-21T04:41:07;7.85;;;2.75;;
55082;SDS011;40978;52.850;6.506;2023-11-21T04:43:33;4.72;;;2.35;;
55082;SDS011;40978;52.850;6.506;2023-11-21T04:45:59;4.70;;;3.00;;
55082;SDS011;40978;52.850;6.506;2023-11-21T04:48:25;4.38;;;2.15;;
55082;SDS011;40978;52.850;6.506;2023-11-21T04:50:50;5.97;;;2.42;;
55082;SDS011;40978;52.850;6.506;2023-11-21T04:53:16;7.05;;;1.63;;
55082;SDS011;40978;52.850;6.506;2023-11-21T04:55:42;4.72;;;2.63;;
55082;SDS011;40978;52.850;6.506;2023-11-21T04:58:09;5.78;;;2.83;;
55082;SDS011;40978;52.850;6.506;2023-11-21T05:00:36;4.55;;;2.10;;
55082;SDS011;40978;52.850;6.506;2023-11-21T05:03:02;10.38;;;2.30;;
55082;SDS011;40978;52.850;6.506;2023-11-21T05:05:29;6.10;;;3.47;;
55082;SDS011;40978;52.850;6.506;2023-11-21T05:07:55;6.43;;;2.80;;
55082;SDS011;40978;52.850;6.506;2023-11-21T05:10:20;4.35;;;2.22;;
55082;SDS011;40978;52.850;6.506;2023-11-21T05:12:47;4.80;;;2.60;;
55082;SDS011;40978;52.850;6.506;2023-11-21T05:15:15;4.50;;;2.33;;
55082;SDS011;40978;52.850;6.506;2023-11-21T05:17:44;4.72;;;2.42;;
55082;SDS011;40978;52.850;6.506;2023-11-21T05:20:14;4.38;;;2.67;;
55082;SDS011;40978;52.850;6.506;2023-11-21T05:22:43;3.88;;;2.58;;
55082;SDS011;40978;52.850;6.506;2023-11-21T05:25:08;4.13;;;2.58;;
55082;SDS011;40978;52.850;6.506;2023-11-21T05:27:35;4.60;;;2.50;;
55082;SDS011;40978;52.850;6.506;2023-11-21T05:30:04;5.22;;;2.78;;
55082;SDS011;40978;52.850;6.506;2023-11-21T05:32:31;4.75;;;2.85;;
55082;SDS011;40978;52.850;6.506;2023-11-21T05:34:57;3.78;;;2.38;;
55082;SDS011;40978;52.850;6.506;2023-11-21T05:37:23;4.38;;;2.65;;
55082;SDS011;40978;52.850;6.506;2023-11-21T05:39:49;4.65;;;3.15;;
55082;SDS011;40978;52.850;6.506;2023-11-21T05:42:15;6.03;;;2.92;;
55082;SDS011;40978;52.850;6.506;2023-11-21T05:44:42;5.57;;;2.17;;
55082;SDS011;40978;52.850;6.506;2023-11-21T05:47:08;6.05;;;2.97;;
55082;SDS011;40978;52.850;6.506;2023-11-21T05:49:34;9.80;;;2.72;;
55082;SDS011;40978;52.850;6.506;2023-11-21T05:52:01;4.75;;;2.95;;
55082;SDS011;40978;52.850;6.506;2023-11-21T05:54:26;4.45;;;2.25;;
55082;SDS011;40978;52.850;6.506;2023-11-21T05:56:52;7.78;;;3.67;;
55082;SDS011;40978;52.850;6.506;2023-11-21T05:59:18;7.85;;;3.40;;
55082;SDS011;40978;52.850;6.506;2023-11-21T06:01:45;7.20;;;3.08;;
55082;SDS011;40978;52.850;6.506;2023-11-21T06:04:11;5.47;;;2.70;;
55082;SDS011;40978;52.850;6.506;2023-11-21T06:06:38;3.67;;;1.95;;
55082;SDS011;40978;52.850;6.506;2023-11-21T06:09:04;5.88;;;2.92;;
55082;SDS011;40978;52.850;6.506;2023-11-21T06:11:31;4.57;;;2.20;;
55082;SDS011;40978;52.850;6.506;2023-11-21T06:13:57;5.50;;;3.05;;
55082;SDS011;40978;52.850;6.506;2023-11-21T06:16:23;4.25;;;2.55;;
55082;SDS011;40978;52.850;6.506;2023-11-21T06:18:49;6.30;;;2.90;;
55082;SDS011;40978;52.850;6.506;2023-11-21T06:21:15;8.50;;;3.58;;
55082;SDS011;40978;52.850;6.506;2023-11-21T06:23:42;5.65;;;2.65;;
55082;SDS011;40978;52.850;6.506;2023-11-21T06:26:07;6.45;;;3.70;;
55082;SDS011;40978;52.850;6.506;2023-11-21T06:28:34;4.47;;;2.72;;
55082;SDS011;40978;52.850;6.506;2023-11-21T06:31:01;4.38;;;2.83;;
55082;SDS011;40978;52.850;6.506;2023-11-21T06:33:30;4.75;;;2.38;;
55082;SDS011;40978;52.850;6.506;2023-11-21T06:35:57;5.13;;;2.70;;
55082;SDS011;40978;52.850;6.506;2023-11-21T06:38:23;5.13;;;2.70;;
55082;SDS011;40978;52.850;6.506;2023-11-21T06:40:48;5.30;;;2.67;;
55082;SDS011;40978;52.850;6.506;2023-11-21T06:43:14;6.60;;;3.03;;
55082;SDS011;40978;52.850;6.506;2023-11-21T06:45:40;2.67;;;1.85;;
55082;SDS011;40978;52.850;6.506;2023-11-21T06:48:06;6.78;;;2.78;;
55082;SDS011;40978;52.850;6.506;2023-11-21T06:50:32;2.97;;;1.40;;
55082;SDS011;40978;52.850;6.506;2023-11-21T06:52:57;4.28;;;1.85;;
55082;SDS011;40978;52.850;6.506;2023-11-21T06:55:23;6.57;;;2.40;;
55082;SDS011;40978;52.850;6.506;2023-11-21T06:57:49;2.72;;;1.60;;
55082;SDS011;40978;52.850;6.506;2023-11-21T07:00:15;4.90;;;2.67;;
55082;SDS011;40978;52.850;6.506;2023-11-21T07:02:43;4.78;;;2.28;;
55082;SDS011;40978;52.850;6.506;2023-11-21T07:05:09;5.00;;;2.40;;
55082;SDS011;40978;52.850;6.506;2023-11-21T07:07:34;4.07;;;1.83;;
55082;SDS011;40978;52.850;6.506;2023-11-21T07:10:02;8.50;;;3.05;;
55082;SDS011;40978;52.850;6.506;2023-11-21T07:12:31;5.20;;;3.00;;
55082;SDS011;40978;52.850;6.506;2023-11-21T07:14:57;4.25;;;2.13;;
55082;SDS011;40978;52.850;6.506;2023-11-21T07:17:23;7.32;;;2.20;;
55082;SDS011;40978;52.850;6.506;2023-11-21T07:19:49;3.97;;;1.83;;
55082;SDS011;40978;52.850;6.506;2023-11-21T07:22:15;4.47;;;2.20;;
55082;SDS011;40978;52.850;6.506;2023-11-21T07:24:47;6.10;;;2.22;;
55082;SDS011;40978;52.850;6.506;2023-11-21T07:27:17;3.03;;;2.03;;
55082;SDS011;40978;52.850;6.506;2023-11-21T07:29:43;4.72;;;2.38;;
55082;SDS011;40978;52.850;6.506;2023-11-21T07:32:09;4.07;;;1.83;;
55082;SDS011;40978;52.850;6.506;2023-11-21T07:34:35;5.63;;;2.03;;
55082;SDS011;40978;52.850;6.506;2023-11-21T07:37:02;4.53;;;2.17;;
55082;SDS011;40978;52.850;6.506;2023-11-21T07:39:28;5.05;;;1.80;;
55082;SDS011;40978;52.850;6.506;2023-11-21T07:41:54;7.28;;;2.28;;
55082;SDS011;40978;52.850;6.506;2023-11-21T07:44:20;4.18;;;2.08;;
55082;SDS011;40978;52.850;6.506;2023-11-21T07:46:45;3.25;;;1.92;;
55082;SDS011;40978;52.850;6.506;2023-11-21T07:49:11;4.70;;;2.58;;
55082;SDS011;40978;52.850;6.506;2023-11-21T07:51:41;6.93;;;2.30;;
55082;SDS011;40978;52.850;6.506;2023-11-21T07:54:07;4.15;;;1.90;;
55082;SDS011;40978;52.850;6.506;2023-11-21T07:56:33;5.43;;;3.38;;
55082;SDS011;40978;52.850;6.506;2023-11-21T07:58:58;6.57;;;2.88;;
55082;SDS011;40978;52.850;6.506;2023-11-21T08:01:24;4.75;;;2.28;;
55082;SDS011;40978;52.850;6.506;2023-11-21T08:03:50;3.58;;;2.10;;
55082;SDS011;40978;52.850;6.506;2023-11-21T08:06:17;8.95;;;3.22;;
55082;SDS011;40978;52.850;6.506;2023-11-21T08:08:43;12.55;;;3.90;;
55082;SDS011;40978;52.850;6.506;2023-11-21T08:11:09;5.78;;;2.80;;
55082;SDS011;40978;52.850;6.506;2023-11-21T08:13:35;3.58;;;1.90;;
55082;SDS011;40978;52.850;6.506;2023-11-21T08:16:01;4.00;;;2.35;;
55082;SDS011;40978;52.850;6.506;2023-11-21T08:18:29;4.05;;;2.08;;
55082;SDS011;40978;52.850;6.506;2023-11-21T08:20:55;4.28;;;2.00;;
55082;SDS011;40978;52.850;6.506;2023-11-21T08:23:21;5.57;;;2.40;;
55082;SDS011;40978;52.850;6.506;2023-11-21T08:25:50;4.28;;;2.50;;
55082;SDS011;40978;52.850;6.506;2023-11-21T08:28:20;4.78;;;2.15;;
55082;SDS011;40978;52.850;6.506;2023-11-21T08:30:51;6.03;;;2.55;;
55082;SDS011;40978;52.850;6.506;2023-11-21T08:33:19;2.83;;;1.73;;
55082;SDS011;40978;52.850;6.506;2023-11-21T08:35:44;3.38;;;1.88;;
55082;SDS011;40978;52.850;6.506;2023-11-21T08:38:11;2.38;;;1.38;;
55082;SDS011;40978;52.850;6.506;2023-11-21T08:40:37;2.25;;;1.20;;
55082;SDS011;40978;52.850;6.506;2023-11-21T08:43:03;3.10;;;1.50;;
55082;SDS011;40978;52.850;6.506;2023-11-21T08:45:33;2.85;;;1.88;;
55082;SDS011;40978;52.850;6.506;2023-11-21T08:48:00;3.67;;;1.88;;
55082;SDS011;40978;52.850;6.506;2023-11-21T08:50:26;3.83;;;1.85;;
55082;SDS011;40978;52.850;6.506;2023-11-21T08:52:51;3.53;;;1.92;;
55082;SDS011;40978;52.850;6.506;2023-11-21T08:55:17;5.20;;;1.95;;
55082;SDS011;40978;52.850;6.506;2023-11-21T08:57:45;9.10;;;3.17;;
55082;SDS011;40978;52.850;6.506;2023-11-21T09:00:14;4.57;;;2.40;;
55082;SDS011;40978;52.850;6.506;2023-11-21T09:02:42;8.27;;;3.13;;
55082;SDS011;40978;52.850;6.506;2023-11-21T09:05:12;6.25;;;3.25;;
55082;SDS011;40978;52.850;6.506;2023-11-21T09:07:39;6.38;;;2.80;;
55082;SDS011;40978;52.850;6.506;2023-11-21T09:10:06;4.93;;;2.42;;
55082;SDS011;40978;52.850;6.506;2023-11-21T09:12:34;6.85;;;4.10;;
55082;SDS011;40978;52.850;6.506;2023-11-21T09:15:04;7.88;;;3.65;;
55082;SDS011;40978;52.850;6.506;2023-11-21T09:17:34;5.05;;;2.53;;
55082;SDS011;40978;52.850;6.506;2023-11-21T09:20:00;5.20;;;3.25;;
55082;SDS011;40978;52.850;6.506;2023-11-21T09:22:28;6.65;;;2.92;;
55082;SDS011;40978;52.850;6.506;2023-11-21T09:24:55;6.22;;;3.00;;
55082;SDS011;40978;52.850;6.506;2023-11-21T09:27:22;6.30;;;3.55;;
55082;SDS011;40978;52.850;6.506;2023-11-21T09:29:48;5.97;;;2.75;;
55082;SDS011;40978;52.850;6.506;2023-11-21T09:32:14;7.25;;;3.58;;
55082;SDS011;40978;52.850;6.506;2023-11-21T09:34:41;6.25;;;3.22;;
55082;SDS011;40978;52.850;6.506;2023-11-21T09:37:07;5.78;;;3.58;;
55082;SDS011;40978;52.850;6.506;2023-11-21T09:39:33;8.32;;;3.97;;
55082;SDS011;40978;52.850;6.506;2023-11-21T09:42:04;6.97;;;3.20;;
55082;SDS011;40978;52.850;6.506;2023-11-21T09:44:43;7.22;;;3.80;;
55082;SDS011;40978;52.850;6.506;2023-11-21T09:47:21;5.97;;;3.50;;
55082;SDS011;40978;52.850;6.506;2023-11-21T09:49:48;10.05;;;4.53;;
55082;SDS011;40978;52.850;6.506;2023-11-21T09:52:25;6.20;;;4.05;;
55082;SDS011;40978;52.850;6.506;2023-11-21T09:54:55;6.32;;;3.85;;
55082;SDS011;40978;52.850;6.506;2023-11-21T09:57:24;7.05;;;4.97;;
55082;SDS011;40978;52.850;6.506;2023-11-21T09:59:51;10.80;;;4.70;;
55082;SDS011;40978;52.850;6.506;2023-11-21T10:02:25;4.68;;;3.33;;
55082;SDS011;40978;52.850;6.506;2023-11-21T10:04:53;8.60;;;4.38;;
55082;SDS011;40978;52.850;6.506;2023-11-21T10:07:20;7.90;;;4.18;;
55082;SDS011;40978;52.850;6.506;2023-11-21T10:10:10;10.52;;;5.45;;
55082;SDS011;40978;52.850;6.506;2023-11-21T10:12:36;6.50;;;3.83;;
55082;SDS011;40978;52.850;6.506;2023-11-21T10:15:03;7.45;;;3.60;;
55082;SDS011;40978;52.850;6.506;2023-11-21T10:17:35;8.18;;;3.75;;
55082;SDS011;40978;52.850;6.506;2023-11-21T10:20:08;6.43;;;3.95;;
55082;SDS011;40978;52.850;6.506;2023-11-21T10:22:39;7.05;;;3.20;;
55082;SDS011;40978;52.850;6.506;2023-11-21T10:25:07;8.15;;;3.75;;
55082;SDS011;40978;52.850;6.506;2023-11-21T10:27:37;6.78;;;3.58;;
55082;SDS011;40978;52.850;6.506;2023-11-21T10:30:08;6.97;;;4.13;;
55082;SDS011;40978;52.850;6.506;2023-11-21T10:32:38;9.88;;;4.28;;
55082;SDS011;40978;52.850;6.506;2023-11-21T10:35:06;7.22;;;3.80;;
55082;SDS011;40978;52.850;6.506;2023-11-21T10:37:38;6.13;;;3.58;;
55082;SDS011;40978;52.850;6.506;2023-11-21T10:40:08;6.50;;;4.05;;
55082;SDS011;40978;52.850;6.506;2023-11-21T10:42:39;10.30;;;4.18;;
55082;SDS011;40978;52.850;6.506;2023-11-21T10:45:07;5.40;;;2.47;;
55082;SDS011;40978;52.850;6.506;2023-11-21T10:47:40;6.45;;;3.50;;
55082;SDS011;40978;52.850;6.506;2023-11-21T10:50:07;4.50;;;2.70;;
55082;SDS011;40978;52.850;6.506;2023-11-21T10:52:36;5.47;;;3.67;;
55082;SDS011;40978;52.850;6.506;2023-11-21T10:55:25;5.38;;;3.30;;
55082;SDS011;40978;52.850;6.506;2023-11-21T10:57:52;8.27;;;4.20;;
55082;SDS011;40978;52.850;6.506;2023-11-21T11:00:22;6.95;;;4.03;;
55082;SDS011;40978;52.850;6.506;2023-11-21T11:02:50;7.30;;;3.95;;
55082;SDS011;40978;52.850;6.506;2023-11-21T11:05:20;4.80;;;2.80;;
55082;SDS011;40978;52.850;6.506;2023-11-21T11:07:50;6.90;;;3.20;;
55082;SDS011;40978;52.850;6.506;2023-11-21T11:10:24;4.82;;;2.67;;
55082;SDS011;40978;52.850;6.506;2023-11-21T11:12:54;5.50;;;3.47;;
55082;SDS011;40978;52.850;6.506;2023-11-21T11:15:22;6.32;;;4.47;;
55082;SDS011;40978;52.850;6.506;2023-11-21T11:17:49;6.07;;;2.78;;
55082;SDS011;40978;52.850;6.506;2023-11-21T11:20:15;5.20;;;2.65;;
55082;SDS011;40978;52.850;6.506;2023-11-21T11:28:06;4.22;;;2.05;;
55082;SDS011;40978;52.850;6.506;2023-11-21T11:38:57;3.72;;;2.30;;
55082;SDS011;40978;52.850;6.506;2023-11-21T11:41:27;3.35;;;2.03;;
55082;SDS011;40978;52.850;6.506;2023-11-21T11:43:55;3.03;;;1.88;;
55082;SDS011;40978;52.850;6.506;2023-11-21T11:46:36;2.63;;;1.77;;
55082;SDS011;40978;52.850;6.506;2023-11-21T11:49:11;2.42;;;1.48;;
55082;SDS011;40978;52.850;6.506;2023-11-21T11:52:18;3.42;;;1.83;;
55082;SDS011;40978;52.850;6.506;2023-11-21T11:54:55;3.17;;;1.85;;
55082;SDS011;40978;52.850;6.506;2023-11-21T11:57:23;2.90;;;1.42;;
55082;SDS011;40978;52.850;6.506;2023-11-21T12:02:44;2.75;;;1.92;;
55082;SDS011;40978;52.850;6.506;2023-11-21T12:05:11;2.15;;;1.63;;
55082;SDS011;40978;52.850;6.506;2023-11-21T12:07:47;4.78;;;1.70;;
55082;SDS011;40978;52.850;6.506;2023-11-21T12:10:26;2.40;;;1.60;;
55082;SDS011;40978;52.850;6.506;2023-11-21T12:12:53;4.55;;;2.45;;
55082;SDS011;40978;52.850;6.506;2023-11-21T12:15:22;2.63;;;1.80;;
55082;SDS011;40978;52.850;6.506;2023-11-21T12:17:49;4.00;;;2.60;;
55082;SDS011;40978;52.850;6.506;2023-11-21T12:20:15;2.22;;;1.20;;
55082;SDS011;40978;52.850;6.506;2023-11-21T12:22:46;3.67;;;2.28;;
55082;SDS011;40978;52.850;6.506;2023-11-21T12:25:16;4.20;;;1.92;;
55082;SDS011;40978;52.850;6.506;2023-11-21T12:28:12;2.70;;;1.38;;
55082;SDS011;40978;52.850;6.506;2023-11-21T12:30:38;1.58;;;1.08;;
55082;SDS011;40978;52.850;6.506;2023-11-21T12:33:04;6.60;;;2.65;;
55082;SDS011;40978;52.850;6.506;2023-11-21T12:35:33;3.38;;;1.40;;
55082;SDS011;40978;52.850;6.506;2023-11-21T12:38:01;3.53;;;2.00;;
55082;SDS011;40978;52.850;6.506;2023-11-21T12:40:27;2.53;;;1.33;;
55082;SDS011;40978;52.850;6.506;2023-11-21T12:42:57;4.28;;;2.10;;
55082;SDS011;40978;52.850;6.506;2023-11-21T12:45:25;1.70;;;1.30;;
55082;SDS011;40978;52.850;6.506;2023-11-21T12:50:28;2.53;;;1.90;;
55082;SDS011;40978;52.850;6.506;2023-11-21T12:53:04;4.05;;;2.22;;
55082;SDS011;40978;52.850;6.506;2023-11-21T12:55:35;1.85;;;1.02;;
55082;SDS011;40978;52.850;6.506;2023-11-21T12:58:02;1.33;;;0.95;;
55082;SDS011;40978;52.850;6.506;2023-11-21T13:00:37;2.33;;;1.43;;
55082;SDS011;40978;52.850;6.506;2023-11-21T13:03:08;4.47;;;1.80;;
55082;SDS011;40978;52.850;6.506;2023-11-21T13:05:37;3.17;;;1.45;;
55082;SDS011;40978;52.850;6.506;2023-11-21T13:08:05;2.63;;;1.23;;
55082;SDS011;40978;52.850;6.506;2023-11-21T13:10:38;2.25;;;1.45;;
55082;SDS011;40978;52.850;6.506;2023-11-21T13:13:07;4.38;;;1.98;;
55082;SDS011;40978;52.850;6.506;2023-11-21T13:15:35;1.77;;;1.17;;
55082;SDS011;40978;52.850;6.506;2023-11-21T13:18:05;2.33;;;1.58;;
55082;SDS011;40978;52.850;6.506;2023-11-21T13:20:32;1.50;;;1.35;;
55082;SDS011;40978;52.850;6.506;2023-11-21T13:22:58;4.57;;;2.30;;
55082;SDS011;40978;52.850;6.506;2023-11-21T13:25:25;2.70;;;1.60;;
55082;SDS011;40978;52.850;6.506;2023-11-21T13:27:59;2.50;;;1.38;;
55082;SDS011;40978;52.850;6.506;2023-11-21T13:30:28;2.75;;;1.55;;
55082;SDS011;40978;52.850;6.506;2023-11-21T13:33:03;2.03;;;1.38;;
55082;SDS011;40978;52.850;6.506;2023-11-21T13:35:35;2.00;;;1.10;;
55082;SDS011;40978;52.850;6.506;2023-11-21T13:38:23;2.45;;;1.27;;
55082;SDS011;40978;52.850;6.506;2023-11-21T13:40:50;2.40;;;1.48;;
55082;SDS011;40978;52.850;6.506;2023-11-21T13:43:23;2.63;;;1.20;;
55082;SDS011;40978;52.850;6.506;2023-11-21T13:45:51;3.60;;;2.15;;
55082;SDS011;40978;52.850;6.506;2023-11-21T13:48:26;2.10;;;1.13;;
55082;SDS011;40978;52.850;6.506;2023-11-21T13:50:59;4.50;;;1.52;;
55082;SDS011;40978;52.850;6.506;2023-11-21T13:53:33;2.60;;;1.63;;
55082;SDS011;40978;52.850;6.506;2023-11-21T13:56:02;2.50;;;1.00;;
55082;SDS011;40978;52.850;6.506;2023-11-21T13:58:29;2.53;;;1.42;;
55082;SDS011;40978;52.850;6.506;2023-11-21T14:01:09;2.63;;;1.05;;
55082;SDS011;40978;52.850;6.506;2023-11-21T14:06:33;2.67;;;1.70;;
55082;SDS011;40978;52.850;6.506;2023-11-21T14:09:05;1.58;;;1.00;;
55082;SDS011;40978;52.850;6.506;2023-11-21T14:11:32;1.90;;;1.40;;
55082;SDS011;40978;52.850;6.506;2023-11-21T14:14:02;2.33;;;1.20;;
55082;SDS011;40978;52.850;6.506;2023-11-21T14:16:28;1.63;;;1.15;;
55082;SDS011;40978;52.850;6.506;2023-11-21T14:18:53;3.22;;;1.63;;
55082;SDS011;40978;52.850;6.506;2023-11-21T14:21:29;2.58;;;1.45;;
55082;SDS011;40978;52.850;6.506;2023-11-21T14:23:54;1.65;;;1.33;;
55082;SDS011;40978;52.850;6.506;2023-11-21T14:26:20;3.78;;;1.17;;
55082;SDS011;40978;52.850;6.506;2023-11-21T14:28:46;2.30;;;1.80;;
55082;SDS011;40978;52.850;6.506;2023-11-21T14:31:14;2.65;;;1.40;;
55082;SDS011;40978;52.850;6.506;2023-11-21T14:33:42;1.75;;;1.17;;
55082;SDS011;40978;52.850;6.506;2023-11-21T14:36:09;2.00;;;1.00;;
55082;SDS011;40978;52.850;6.506;2023-11-21T14:38:38;2.20;;;1.40;;
55082;SDS011;40978;52.850;6.506;2023-11-21T14:41:05;2.05;;;0.90;;
55082;SDS011;40978;52.850;6.506;2023-11-21T14:43:33;2.90;;;1.45;;
55082;SDS011;40978;52.850;6.506;2023-11-21T14:46:04;2.20;;;1.13;;
55082;SDS011;40978;52.850;6.506;2023-11-21T14:48:33;3.45;;;2.05;;
55082;SDS011;40978;52.850;6.506;2023-11-21T14:53:40;3.33;;;1.48;;
55082;SDS011;40978;52.850;6.506;2023-11-21T14:56:19;1.55;;;1.13;;
55082;SDS011;40978;52.850;6.506;2023-11-21T14:58:52;4.25;;;1.80;;
55082;SDS011;40978;52.850;6.506;2023-11-21T15:01:19;1.73;;;1.27;;
55082;SDS011;40978;52.850;6.506;2023-11-21T15:03:59;1.80;;;1.40;;
55082;SDS011;40978;52.850;6.506;2023-11-21T15:06:24;3.15;;;1.95;;
55082;SDS011;40978;52.850;6.506;2023-11-21T15:08:56;6.47;;;1.90;;
55082;SDS011;40978;52.850;6.506;2023-11-21T15:11:46;2.67;;;1.58;;
55082;SDS011;40978;52.850;6.506;2023-11-21T15:14:12;2.30;;;1.20;;
55082;SDS011;40978;52.850;6.506;2023-11-21T15:16:45;5.30;;;1.60;;